Cottonwood, Minnesota
Current Conditions -  °F | °C
As of 4:13 PM on Friday 24 Oct 2014 (Local Time) from KGDB Reporting Station
Clear Clear  
Wind Chill: 74°   Ceiling: Unl
Heat Index: 74°   Visibility: 10mi
Dew Point: 39°   Wind: 0mph
Humidity: 28%   Direction: NA
Pressure: 29.86"   Gusts: NA
Location:  44.61°N, 95.67°W
Report Text: KGDB 242113Z AUTO 00000KT 10SM CLR 24/04 A2986 RMK AO2 T02350040
Loading
Personal Weather Stations






























Interactive Weather Map
Tropical Storm Tracking
New forecast layout! Learn more

10-Day Weather Forecast

Advertisements
Track Severe Weather on mobile